Darstellungsparameter: Aktuell verwendete Einstellungen:
Skalierung der Graphiken ... ?
xyx+y,   Skalierungsfaktor:      Skalierung: Modus: x, Faktor: 1
Darstellungszeitraum ... ?
Vom - - bis: - -   Zeitraum: 01.05.2014 - 01.05.2014
Min/Max/Avg-Anzeige ... ?
Zeige MMA aktuell
Zeige MMA Monat
Zeige MMA alles
Zeige --A aktuell
Zeige --A Monat
Zeige --A alles
Keine MMA-Anzeige
MMA:
Minimum Maximum Average (ber die Originaldaten)
MMA-Basis: 01.05.2014 - 01.05.2014
Quicknavigation für Darstellung... ?
Tage:      1T, 2T, 3T, 5T -1T -2T -3T -5T +1T +2T +3T +5T
Wochen: 1W, 2W, 3W -1W -2W -3W +1W +2W +3W
Monate: 1M, 3M, 6M -1M -3M -6M +1M +3M +6M
Jahre:    1J, 3J, 5J, 10J -1J -3J -5J -10J +1J +3J +5J +10J
Nutze für die Darstellung ... ?
Originaldaten oder Mittelwerte auf ...
Stundenbasis Tagesbasis Wochenbasis
Monatsbasis Jahresbasis      Datenbasis: Original-Daten
Darstellen als:
Statistik (Auto) Statistik J:M      Darstellung:
Zur Graphik,    zurück zur Übersicht aller Sensoren.
 
Tabellarische Datenbersicht: ?
 
Sensor: Nr:Datum:Temp:Abs-Feuchte:Windchill:Wind:
Aussen-T/F 1 01-05-2014 00:00:00 14.1 C 11.04 g/m*3 14.1 C 0 km/h
2 01-05-2014 00:05:00 13.9 C 10.91 g/m*3 13.9 C 0 km/h
3 01-05-2014 00:10:00 13.9 C 11.03 g/m*3 13.9 C 0 km/h
4 01-05-2014 00:15:00 13.8 C 10.96 g/m*3 13.8 C 1.6 km/h
5 01-05-2014 00:20:00 13.8 C 10.96 g/m*3 13.8 C 0 km/h
6 01-05-2014 00:25:00 13.7 C 10.89 g/m*3 13.7 C 0 km/h
7 01-05-2014 00:30:00 13.7 C 10.89 g/m*3 13.7 C 0 km/h
8 01-05-2014 00:35:00 13.6 C 10.95 g/m*3 13.6 C 0 km/h
9 01-05-2014 00:40:00 13.5 C 10.76 g/m*3 13.5 C 0 km/h
10 01-05-2014 00:45:00 13.4 C 10.81 g/m*3 13.4 C 0 km/h
11 01-05-2014 00:50:00 13.3 C 10.74 g/m*3 13.3 C 0 km/h
12 01-05-2014 00:55:00 13.2 C 10.68 g/m*3 13.2 C 0 km/h
13 01-05-2014 01:00:00 13.2 C 10.68 g/m*3 13.2 C 0 km/h
14 01-05-2014 01:05:00 13.2 C 10.68 g/m*3 13.2 C 0 km/h
15 01-05-2014 01:10:00 13.1 C 10.61 g/m*3 13.1 C 0 km/h
16 01-05-2014 01:15:00 13.1 C 10.73 g/m*3 13.1 C 0 km/h
17 01-05-2014 01:20:00 13.1 C 10.73 g/m*3 13.1 C 0 km/h
18 01-05-2014 01:25:00 13.1 C 10.73 g/m*3 13.1 C 0 km/h
19 01-05-2014 01:30:00 13.1 C 10.73 g/m*3 13.1 C 0 km/h
20 01-05-2014 01:35:00 13.1 C 10.73 g/m*3 13.1 C 0 km/h
21 01-05-2014 01:40:00 13.1 C 10.73 g/m*3 13.1 C 0 km/h
22 01-05-2014 01:45:00 13.1 C 10.84 g/m*3 13.1 C 0 km/h
23 01-05-2014 01:50:00 13.2 C 10.91 g/m*3 13.2 C 0 km/h
24 01-05-2014 01:55:00 13.2 C 10.91 g/m*3 13.2 C 0 km/h
25 01-05-2014 02:00:00 13.2 C 10.79 g/m*3 13.2 C 0 km/h
Sensor: Nr:Datum:Temp:Abs-Feuchte:Windchill:Wind:
Aussen-T/F 26 01-05-2014 02:05:00 13.2 C 10.79 g/m*3 13.2 C 0 km/h
27 01-05-2014 02:10:00 13.2 C 10.79 g/m*3 13.2 C 0 km/h
28 01-05-2014 02:15:00 13.3 C 10.86 g/m*3 13.3 C 0 km/h
29 01-05-2014 02:20:00 13.3 C 10.86 g/m*3 13.3 C 0 km/h
30 01-05-2014 02:25:00 13.3 C 10.86 g/m*3 13.3 C 0 km/h
31 01-05-2014 02:30:00 13.3 C 10.86 g/m*3 13.3 C 0 km/h
32 01-05-2014 02:35:00 13.3 C 10.86 g/m*3 13.3 C 0 km/h
33 01-05-2014 02:40:00 13.3 C 10.86 g/m*3 13.3 C 0 km/h
34 01-05-2014 02:45:00 13.3 C 10.86 g/m*3 13.3 C 0 km/h
35 01-05-2014 02:50:00 13.3 C 10.74 g/m*3 13.3 C 0 km/h
36 01-05-2014 02:55:00 13.2 C 10.68 g/m*3 13.2 C 3.2 km/h
37 01-05-2014 03:00:00 13.2 C 10.68 g/m*3 13.2 C 0 km/h
38 01-05-2014 03:05:00 13.2 C 10.79 g/m*3 13.2 C 3.2 km/h
39 01-05-2014 03:10:00 13.2 C 10.79 g/m*3 13.2 C 0 km/h
40 01-05-2014 03:15:00 13.3 C 10.74 g/m*3 13.3 C 1.6 km/h
41 01-05-2014 03:20:00 13.3 C 10.74 g/m*3 13.3 C 0 km/h
42 01-05-2014 03:25:00 13.3 C 10.74 g/m*3 13.3 C 1.6 km/h
43 01-05-2014 03:30:00 13.3 C 10.74 g/m*3 13.3 C 0 km/h
44 01-05-2014 03:35:00 13.2 C 10.68 g/m*3 13.2 C 0 km/h
45 01-05-2014 03:40:00 13.2 C 10.68 g/m*3 13.2 C 0 km/h
46 01-05-2014 03:45:00 13.2 C 10.68 g/m*3 13.2 C 1.6 km/h
47 01-05-2014 03:50:00 13.2 C 10.68 g/m*3 13.2 C 0 km/h
48 01-05-2014 03:55:00 13.2 C 10.68 g/m*3 13.2 C 0 km/h
49 01-05-2014 04:00:00 13.2 C 10.68 g/m*3 13.2 C 1.6 km/h
50 01-05-2014 04:05:00 13.2 C 10.68 g/m*3 13.2 C 0 km/h
Sensor: Nr:Datum:Temp:Abs-Feuchte:Windchill:Wind:
Aussen-T/F 51 01-05-2014 04:10:00 13.3 C 10.74 g/m*3 13.3 C 4.8 km/h
52 01-05-2014 04:15:00 13.3 C 10.74 g/m*3 13.3 C 3.2 km/h
53 01-05-2014 04:20:00 13.3 C 10.74 g/m*3 13.3 C 0 km/h
54 01-05-2014 04:25:00 13.3 C 10.74 g/m*3 13.3 C 0 km/h
55 01-05-2014 04:30:00 13.2 C 10.68 g/m*3 13.2 C 0 km/h
56 01-05-2014 04:35:00 13.2 C 10.79 g/m*3 13.2 C 0 km/h
57 01-05-2014 04:40:00 13.2 C 10.79 g/m*3 13.2 C 0 km/h
58 01-05-2014 04:45:00 13.2 C 10.79 g/m*3 13.2 C 0 km/h
59 01-05-2014 04:50:00 13.2 C 10.79 g/m*3 13.2 C 0 km/h
60 01-05-2014 04:55:00 13.1 C 10.73 g/m*3 13.1 C 0 km/h
61 01-05-2014 05:00:00 13.1 C 10.73 g/m*3 13.1 C 0 km/h
62 01-05-2014 05:05:00 13.1 C 10.73 g/m*3 13.1 C 0 km/h
63 01-05-2014 05:10:00 13.1 C 10.73 g/m*3 13.1 C 1.6 km/h
64 01-05-2014 05:15:00 13.1 C 10.73 g/m*3 13.1 C 0 km/h
65 01-05-2014 05:20:00 13 C 10.66 g/m*3 13 C 0 km/h
66 01-05-2014 05:25:00 13 C 10.66 g/m*3 13 C 0 km/h
67 01-05-2014 05:30:00 12.9 C 10.59 g/m*3 12.9 C 0 km/h
68 01-05-2014 05:35:00 12.9 C 10.59 g/m*3 12.9 C 0 km/h
69 01-05-2014 05:40:00 12.8 C 10.53 g/m*3 12.8 C 0 km/h
70 01-05-2014 05:45:00 12.8 C 10.53 g/m*3 12.8 C 0 km/h
71 01-05-2014 05:50:00 12.7 C 10.46 g/m*3 12.7 C 0 km/h
72 01-05-2014 05:55:00 12.7 C 10.46 g/m*3 12.7 C 0 km/h
73 01-05-2014 06:00:00 12.7 C 10.46 g/m*3 12.7 C 0 km/h
74 01-05-2014 06:05:00 12.7 C 10.46 g/m*3 12.7 C 0 km/h
75 01-05-2014 06:10:00 12.7 C 10.46 g/m*3 12.7 C 1.6 km/h
Sensor: Nr:Datum:Temp:Abs-Feuchte:Windchill:Wind:
Aussen-T/F 76 01-05-2014 06:15:00 12.7 C 10.58 g/m*3 12.7 C 0 km/h
77 01-05-2014 06:20:00 12.7 C 10.58 g/m*3 12.7 C 0 km/h
78 01-05-2014 06:25:00 12.6 C 10.51 g/m*3 12.6 C 0 km/h
79 01-05-2014 06:30:00 12.6 C 10.51 g/m*3 12.6 C 0 km/h
80 01-05-2014 06:35:00 12.6 C 10.51 g/m*3 12.6 C 1.6 km/h
81 01-05-2014 06:40:00 12.6 C 10.51 g/m*3 12.6 C 1.6 km/h
82 01-05-2014 06:45:00 12.6 C 10.51 g/m*3 12.6 C 0 km/h
83 01-05-2014 06:50:00 12.6 C 10.51 g/m*3 12.6 C 1.6 km/h
84 01-05-2014 06:55:00 12.6 C 10.51 g/m*3 12.6 C 0 km/h
85 01-05-2014 07:00:00 12.5 C 10.44 g/m*3 12.5 C 0 km/h
86 01-05-2014 07:05:00 12.5 C 10.44 g/m*3 12.5 C 0 km/h
87 01-05-2014 07:10:00 12.5 C 10.44 g/m*3 12.5 C 0 km/h
88 01-05-2014 07:15:00 12.5 C 10.44 g/m*3 12.5 C 0 km/h
89 01-05-2014 07:20:00 12.5 C 10.44 g/m*3 12.5 C 0 km/h
90 01-05-2014 07:25:00 12.5 C 10.44 g/m*3 12.5 C 0 km/h
91 01-05-2014 07:30:00 12.6 C 10.51 g/m*3 12.6 C 0 km/h
92 01-05-2014 07:35:00 12.6 C 10.51 g/m*3 12.6 C 0 km/h
93 01-05-2014 07:40:00 12.6 C 10.51 g/m*3 12.6 C 0 km/h
94 01-05-2014 07:45:00 12.7 C 10.69 g/m*3 12.7 C 0 km/h
95 01-05-2014 07:50:00 12.7 C 10.58 g/m*3 12.7 C 0 km/h
96 01-05-2014 07:55:00 12.8 C 10.64 g/m*3 12.8 C 0 km/h
97 01-05-2014 08:00:00 12.8 C 10.64 g/m*3 12.8 C 0 km/h
98 01-05-2014 08:05:00 12.9 C 10.82 g/m*3 12.9 C 0 km/h
99 01-05-2014 08:10:00 13.1 C 10.84 g/m*3 13.1 C 0 km/h
100 01-05-2014 08:15:00 13.1 C 10.84 g/m*3 13.1 C 0 km/h
Sensor: Nr:Datum:Temp:Abs-Feuchte:Windchill:Wind:
Aussen-T/F 101 01-05-2014 08:20:00 13.2 C 10.91 g/m*3 13.2 C 0 km/h
102 01-05-2014 08:25:00 13.3 C 10.98 g/m*3 13.3 C 0 km/h
103 01-05-2014 08:30:00 13.3 C 10.86 g/m*3 13.3 C 0 km/h
104 01-05-2014 08:35:00 13.3 C 10.74 g/m*3 13.3 C 0 km/h
105 01-05-2014 08:40:00 13.4 C 10.69 g/m*3 13.4 C 0 km/h
106 01-05-2014 08:45:00 13.5 C 10.76 g/m*3 13.5 C 0 km/h
107 01-05-2014 08:50:00 13.7 C 10.89 g/m*3 13.7 C 1.6 km/h
108 01-05-2014 08:55:00 13.8 C 10.84 g/m*3 13.8 C 3.2 km/h
109 01-05-2014 09:00:00 13.9 C 10.79 g/m*3 13.9 C 1.6 km/h
110 01-05-2014 09:05:00 14.1 C 10.56 g/m*3 14.1 C 0 km/h
111 01-05-2014 09:10:00 14.2 C 10.62 g/m*3 14.2 C 1.6 km/h
112 01-05-2014 09:15:00 14.2 C 10.62 g/m*3 14.2 C 1.6 km/h
113 01-05-2014 09:20:00 14.2 C 10.38 g/m*3 14.2 C 0 km/h
114 01-05-2014 09:25:00 14.3 C 10.44 g/m*3 14.3 C 0 km/h
115 01-05-2014 09:30:00 14.3 C 10.44 g/m*3 14.3 C 1.6 km/h
116 01-05-2014 09:35:00 14.3 C 10.44 g/m*3 14.3 C 1.6 km/h
117 01-05-2014 09:40:00 14.3 C 10.32 g/m*3 14.3 C 0 km/h
118 01-05-2014 09:45:00 14.4 C 10.01 g/m*3 14.4 C 3.2 km/h
119 01-05-2014 09:50:00 14.3 C 9.83 g/m*3 14.3 C 1.6 km/h
120 01-05-2014 09:55:00 14.4 C 9.77 g/m*3 14.4 C 3.2 km/h
121 01-05-2014 10:00:00 14.5 C 9.33 g/m*3 14.5 C 8.1 km/h
122 01-05-2014 10:05:00 14.6 C 9.13 g/m*3 14.6 C 8.1 km/h
123 01-05-2014 10:10:00 14.6 C 9.26 g/m*3 14.6 C 3.2 km/h
124 01-05-2014 10:15:00 14.6 C 9.39 g/m*3 14.6 C 1.6 km/h
125 01-05-2014 10:20:00 14.7 C 9.19 g/m*3 14.7 C 4.8 km/h
Sensor: Nr:Datum:Temp:Abs-Feuchte:Windchill:Wind:
Aussen-T/F 126 01-05-2014 10:25:00 14.8 C 9.12 g/m*3 14.8 C 6.4 km/h
127 01-05-2014 10:30:00 14.8 C 9.25 g/m*3 14.8 C 6.4 km/h
128 01-05-2014 10:35:00 14.9 C 9.43 g/m*3 14.9 C 6.4 km/h
129 01-05-2014 10:40:00 15.2 C 9.09 g/m*3 15.2 C 8.1 km/h
130 01-05-2014 10:45:00 15.2 C 9.09 g/m*3 15.2 C 4.8 km/h
131 01-05-2014 10:50:00 15.3 C 9.4 g/m*3 15.3 C 3.2 km/h
132 01-05-2014 10:55:00 15.5 C 9.52 g/m*3 15.5 C 8.1 km/h
133 01-05-2014 11:00:00 15.7 C 9.37 g/m*3 15.7 C 6.4 km/h
134 01-05-2014 11:05:00 15.9 C 9.62 g/m*3 15.9 C 6.4 km/h
135 01-05-2014 11:10:00 16.3 C 9.99 g/m*3 16.3 C 6.4 km/h
136 01-05-2014 11:15:00 16.7 C 9.66 g/m*3 16.7 C 9.7 km/h
137 01-05-2014 11:20:00 17.1 C 9.75 g/m*3 17.1 C 9.7 km/h
138 01-05-2014 11:25:00 17.2 C 9.52 g/m*3 17.2 C 6.4 km/h
139 01-05-2014 11:30:00 17.2 C 9.37 g/m*3 17.2 C 4.8 km/h
140 01-05-2014 11:35:00 17.2 C 9.52 g/m*3 17.2 C 9.7 km/h
141 01-05-2014 11:40:00 17.2 C 9.37 g/m*3 17.2 C 6.4 km/h
142 01-05-2014 11:45:00 17.1 C 9.32 g/m*3 17.1 C 3.2 km/h
143 01-05-2014 11:50:00 17 C 9.26 g/m*3 17 C 8.1 km/h
144 01-05-2014 11:55:00 17.2 C 9.08 g/m*3 17.2 C 8.1 km/h
145 01-05-2014 12:00:00 17.4 C 9.34 g/m*3 17.4 C 6.4 km/h
146 01-05-2014 12:05:00 17.7 C 9.05 g/m*3 17.7 C 6.4 km/h
147 01-05-2014 12:10:00 17.8 C 8.95 g/m*3 17.8 C 4.8 km/h
148 01-05-2014 12:15:00 17.9 C 9.77 g/m*3 17.9 C 4.8 km/h
149 01-05-2014 12:20:00 18.2 C 9.33 g/m*3 18.2 C 8.1 km/h
150 01-05-2014 12:25:00 18.3 C 9.38 g/m*3 18.3 C 4.8 km/h
Sensor: Nr:Datum:Temp:Abs-Feuchte:Windchill:Wind:
Aussen-T/F 151 01-05-2014 12:30:00 18.6 C 9.55 g/m*3 18.6 C 6.4 km/h
152 01-05-2014 12:35:00 18.6 C 8.91 g/m*3 18.6 C 8.1 km/h
153 01-05-2014 12:40:00 18.7 C 9.29 g/m*3 18.7 C 3.2 km/h
154 01-05-2014 12:45:00 18.8 C 9.02 g/m*3 18.8 C 4.8 km/h
155 01-05-2014 12:50:00 18.9 C 9.23 g/m*3 18.9 C 3.2 km/h
156 01-05-2014 12:55:00 19.2 C 9.4 g/m*3 19.2 C 8.1 km/h
157 01-05-2014 13:00:00 19.5 C 8.89 g/m*3 19.5 C 3.2 km/h
158 01-05-2014 13:05:00 19.5 C 8.39 g/m*3 19.5 C 8.1 km/h
159 01-05-2014 13:10:00 19.4 C 8.84 g/m*3 19.4 C 4.8 km/h
160 01-05-2014 13:15:00 19.5 C 10.24 g/m*3 19.5 C 4.8 km/h
161 01-05-2014 13:20:00 19.7 C 9.34 g/m*3 19.7 C 3.2 km/h
162 01-05-2014 13:25:00 19.7 C 9.34 g/m*3 19.7 C 4.8 km/h
163 01-05-2014 13:30:00 19.8 C 9.05 g/m*3 19.8 C 8.1 km/h
164 01-05-2014 13:35:00 20 C 9.33 g/m*3 20 C 9.7 km/h
165 01-05-2014 13:40:00 20.2 C 8.92 g/m*3 20.2 C 11.3 km/h
166 01-05-2014 13:45:00 19.9 C 8.76 g/m*3 19.9 C 4.8 km/h
167 01-05-2014 13:50:00 19.9 C 9.62 g/m*3 19.9 C 6.4 km/h
168 01-05-2014 13:55:00 19.8 C 8.71 g/m*3 19.8 C 6.4 km/h
169 01-05-2014 14:00:00 19.8 C 9.22 g/m*3 19.8 C 8.1 km/h
170 01-05-2014 14:05:00 19.8 C 8.71 g/m*3 19.8 C 4.8 km/h
171 01-05-2014 14:10:00 19.8 C 8.88 g/m*3 19.8 C 4.8 km/h
172 01-05-2014 14:15:00 19.8 C 8.88 g/m*3 19.8 C 4.8 km/h
173 01-05-2014 14:20:00 19.9 C 9.28 g/m*3 19.9 C 3.2 km/h
174 01-05-2014 14:25:00 20.1 C 8.87 g/m*3 20.1 C 4.8 km/h
175 01-05-2014 14:30:00 20.3 C 9.32 g/m*3 20.3 C 6.4 km/h
Sensor: Nr:Datum:Temp:Abs-Feuchte:Windchill:Wind:
Aussen-T/F 176 01-05-2014 14:35:00 20.3 C 8.44 g/m*3 20.3 C 6.4 km/h
177 01-05-2014 14:40:00 20.1 C 9.21 g/m*3 20.1 C 1.6 km/h
178 01-05-2014 14:45:00 20.3 C 9.5 g/m*3 20.3 C 8.1 km/h
179 01-05-2014 14:50:00 20.4 C 8.31 g/m*3 20.4 C 11.3 km/h
180 01-05-2014 14:55:00 20.2 C 8.39 g/m*3 20.2 C 3.2 km/h
181 01-05-2014 15:00:00 19.9 C 8.42 g/m*3 19.9 C 3.2 km/h
182 01-05-2014 15:05:00 19.7 C 8.66 g/m*3 19.7 C 3.2 km/h
183 01-05-2014 15:10:00 19.6 C 8.78 g/m*3 19.6 C 6.4 km/h
184 01-05-2014 15:15:00 19.4 C 8.18 g/m*3 19.4 C 3.2 km/h
185 01-05-2014 15:20:00 19.4 C 8.01 g/m*3 19.4 C 3.2 km/h
186 01-05-2014 15:25:00 19.3 C 8.63 g/m*3 19.3 C 3.2 km/h
187 01-05-2014 15:30:00 19.3 C 9.45 g/m*3 19.3 C 4.8 km/h
188 01-05-2014 15:35:00 19.2 C 8.74 g/m*3 19.2 C 3.2 km/h
189 01-05-2014 15:40:00 18.8 C 10.95 g/m*3 18.8 C 1.6 km/h
190 01-05-2014 15:45:00 18.3 C 11.1 g/m*3 18.3 C 0 km/h
191 01-05-2014 15:50:00 17.7 C 9.35 g/m*3 17.7 C 1.6 km/h
192 01-05-2014 15:55:00 17.6 C 9.45 g/m*3 17.6 C 6.4 km/h
193 01-05-2014 16:00:00 17.3 C 9.87 g/m*3 17.3 C 6.4 km/h
194 01-05-2014 16:05:00 16.9 C 9.92 g/m*3 16.9 C 3.2 km/h
195 01-05-2014 16:10:00 16.5 C 10.11 g/m*3 16.5 C 4.8 km/h
196 01-05-2014 16:15:00 16.1 C 10.28 g/m*3 16.1 C 3.2 km/h
197 01-05-2014 16:20:00 15.6 C 10.37 g/m*3 15.6 C 4.8 km/h
198 01-05-2014 16:25:00 15.3 C 10.32 g/m*3 15.3 C 3.2 km/h
199 01-05-2014 16:30:00 15 C 10.39 g/m*3 15 C 6.4 km/h
200 01-05-2014 16:35:00 14.8 C 10.39 g/m*3 14.8 C 6.4 km/h
Sensor: Nr:Datum:Temp:Abs-Feuchte:Windchill:Wind:
Aussen-T/F 201 01-05-2014 16:40:00 14.8 C 10.51 g/m*3 14.8 C 6.4 km/h
202 01-05-2014 16:45:00 14.8 C 10.39 g/m*3 14.8 C 3.2 km/h
203 01-05-2014 16:50:00 14.8 C 10.51 g/m*3 14.8 C 4.8 km/h
204 01-05-2014 16:55:00 14.9 C 10.58 g/m*3 14.9 C 3.2 km/h
205 01-05-2014 17:00:00 15 C 10.39 g/m*3 15 C 1.6 km/h
206 01-05-2014 17:05:00 15 C 10.39 g/m*3 15 C 1.6 km/h
207 01-05-2014 17:10:00 15.1 C 10.32 g/m*3 15.1 C 1.6 km/h
208 01-05-2014 17:15:00 15.2 C 10.12 g/m*3 15.2 C 3.2 km/h
209 01-05-2014 17:20:00 15.3 C 10.32 g/m*3 15.3 C 3.2 km/h
210 01-05-2014 17:25:00 15.5 C 10.31 g/m*3 15.5 C 3.2 km/h
211 01-05-2014 17:30:00 15.8 C 10.23 g/m*3 15.8 C 3.2 km/h
212 01-05-2014 17:35:00 15.9 C 10.02 g/m*3 15.9 C 4.8 km/h
213 01-05-2014 17:40:00 16 C 10.08 g/m*3 16 C 4.8 km/h
214 01-05-2014 17:45:00 16 C 9.95 g/m*3 16 C 6.4 km/h
215 01-05-2014 17:50:00 16.1 C 10.14 g/m*3 16.1 C 4.8 km/h
216 01-05-2014 17:55:00 16.1 C 10.28 g/m*3 16.1 C 9.7 km/h
217 01-05-2014 18:00:00 16.1 C 10.42 g/m*3 16.1 C 4.8 km/h
218 01-05-2014 18:05:00 16.1 C 10.42 g/m*3 16.1 C 6.4 km/h
219 01-05-2014 18:10:00 16.1 C 10.69 g/m*3 16.1 C 4.8 km/h
220 01-05-2014 18:15:00 16.1 C 10.14 g/m*3 16.1 C 9.7 km/h
221 01-05-2014 18:20:00 16.1 C 10.01 g/m*3 16.1 C 8.1 km/h
222 01-05-2014 18:25:00 16.2 C 9.93 g/m*3 16.2 C 6.4 km/h
223 01-05-2014 18:30:00 16.2 C 9.93 g/m*3 16.2 C 4.8 km/h
224 01-05-2014 18:35:00 16.2 C 10.07 g/m*3 16.2 C 3.2 km/h
225 01-05-2014 18:40:00 16.3 C 10.41 g/m*3 16.3 C 0 km/h
Sensor: Nr:Datum:Temp:Abs-Feuchte:Windchill:Wind:
Aussen-T/F 226 01-05-2014 18:45:00 16.2 C 10.34 g/m*3 16.2 C 0 km/h
227 01-05-2014 18:50:00 16.2 C 10.2 g/m*3 16.2 C 1.6 km/h
228 01-05-2014 18:55:00 16.1 C 10.01 g/m*3 16.1 C 3.2 km/h
229 01-05-2014 19:00:00 16.1 C 10.28 g/m*3 16.1 C 0 km/h
230 01-05-2014 19:05:00 16 C 10.22 g/m*3 16 C 0 km/h
231 01-05-2014 19:10:00 15.9 C 10.16 g/m*3 15.9 C 1.6 km/h
232 01-05-2014 19:15:00 15.8 C 10.63 g/m*3 15.8 C 0 km/h
233 01-05-2014 19:20:00 15.6 C 10.64 g/m*3 15.6 C 0 km/h
234 01-05-2014 19:25:00 15.3 C 10.58 g/m*3 15.3 C 0 km/h
235 01-05-2014 19:30:00 15.1 C 10.58 g/m*3 15.1 C 0 km/h
236 01-05-2014 19:35:00 14.9 C 10.58 g/m*3 14.9 C 0 km/h
237 01-05-2014 19:40:00 14.8 C 10.39 g/m*3 14.8 C 0 km/h
238 01-05-2014 19:45:00 14.8 C 10.13 g/m*3 14.8 C 0 km/h
239 01-05-2014 19:50:00 14.8 C 10.26 g/m*3 14.8 C 0 km/h
240 01-05-2014 19:55:00 14.9 C 10.07 g/m*3 14.9 C 0 km/h
241 01-05-2014 20:00:00 14.9 C 10.32 g/m*3 14.9 C 1.6 km/h
242 01-05-2014 20:05:00 14.8 C 10.39 g/m*3 14.8 C 1.6 km/h
243 01-05-2014 20:10:00 14.6 C 10.39 g/m*3 14.6 C 1.6 km/h
244 01-05-2014 20:15:00 14.3 C 9.95 g/m*3 14.3 C 3.2 km/h
245 01-05-2014 20:20:00 14.2 C 10.14 g/m*3 14.2 C 0 km/h
246 01-05-2014 20:25:00 14.1 C 10.07 g/m*3 14.1 C 0 km/h
247 01-05-2014 20:30:00 13.9 C 10.19 g/m*3 13.9 C 0 km/h
248 01-05-2014 20:35:00 13.7 C 9.95 g/m*3 13.7 C 1.6 km/h
249 01-05-2014 20:40:00 13.6 C 10.12 g/m*3 13.6 C 1.6 km/h
250 01-05-2014 20:45:00 13.4 C 10 g/m*3 13.4 C 1.6 km/h
Sensor: Nr:Datum:Temp:Abs-Feuchte:Windchill:Wind:
Aussen-T/F 251 01-05-2014 20:50:00 13.2 C 9.87 g/m*3 13.2 C 1.6 km/h
252 01-05-2014 20:55:00 13 C 9.87 g/m*3 13 C 0 km/h
253 01-05-2014 21:00:00 12.8 C 9.74 g/m*3 12.8 C 0 km/h
254 01-05-2014 21:05:00 12.7 C 9.8 g/m*3 12.7 C 1.6 km/h
255 01-05-2014 21:10:00 12.7 C 9.8 g/m*3 12.7 C 0 km/h
256 01-05-2014 21:15:00 12.6 C 9.85 g/m*3 12.6 C 0 km/h
257 01-05-2014 21:20:00 12.6 C 9.85 g/m*3 12.6 C 1.6 km/h
258 01-05-2014 21:25:00 12.4 C 9.72 g/m*3 12.4 C 0 km/h
259 01-05-2014 21:30:00 12.4 C 9.72 g/m*3 12.4 C 0 km/h
260 01-05-2014 21:35:00 12.4 C 9.72 g/m*3 12.4 C 0 km/h
261 01-05-2014 21:40:00 12.3 C 9.77 g/m*3 12.3 C 0 km/h
262 01-05-2014 21:45:00 12.2 C 9.6 g/m*3 12.2 C 0 km/h
263 01-05-2014 21:50:00 12.2 C 9.71 g/m*3 12.2 C 0 km/h
264 01-05-2014 21:55:00 12.1 C 9.65 g/m*3 12.1 C 0 km/h
265 01-05-2014 22:00:00 12 C 9.59 g/m*3 12 C 0 km/h
266 01-05-2014 22:05:00 12 C 9.7 g/m*3 12 C 0 km/h
267 01-05-2014 22:10:00 11.9 C 9.64 g/m*3 11.9 C 0 km/h
268 01-05-2014 22:15:00 11.9 C 9.64 g/m*3 11.9 C 0 km/h
269 01-05-2014 22:20:00 11.8 C 9.58 g/m*3 11.8 C 0 km/h
270 01-05-2014 22:25:00 11.8 C 9.58 g/m*3 11.8 C 0 km/h
271 01-05-2014 22:30:00 11.8 C 9.58 g/m*3 11.8 C 0 km/h
272 01-05-2014 22:35:00 11.8 C 9.68 g/m*3 11.8 C 0 km/h
273 01-05-2014 22:40:00 11.8 C 9.68 g/m*3 11.8 C 0 km/h
274 01-05-2014 22:45:00 11.8 C 9.68 g/m*3 11.8 C 0 km/h
275 01-05-2014 22:50:00 11.8 C 9.68 g/m*3 11.8 C 0 km/h
Sensor: Nr:Datum:Temp:Abs-Feuchte:Windchill:Wind:
Aussen-T/F 276 01-05-2014 22:55:00 11.8 C 9.68 g/m*3 11.8 C 0 km/h
277 01-05-2014 23:00:00 11.9 C 9.74 g/m*3 11.9 C 1.6 km/h
278 01-05-2014 23:05:00 11.9 C 9.74 g/m*3 11.9 C 0 km/h
279 01-05-2014 23:10:00 11.9 C 9.74 g/m*3 11.9 C 1.6 km/h
280 01-05-2014 23:15:00 11.9 C 9.74 g/m*3 11.9 C 0 km/h
281 01-05-2014 23:20:00 11.8 C 9.68 g/m*3 11.8 C 0 km/h
282 01-05-2014 23:25:00 11.8 C 9.58 g/m*3 11.8 C 0 km/h
283 01-05-2014 23:30:00 11.7 C 9.62 g/m*3 11.7 C 0 km/h
284 01-05-2014 23:35:00 11.6 C 9.56 g/m*3 11.6 C 0 km/h
285 01-05-2014 23:40:00 11.5 C 9.5 g/m*3 11.5 C 0 km/h
286 01-05-2014 23:45:00 11.4 C 9.44 g/m*3 11.4 C 0 km/h
287 01-05-2014 23:50:00 11.4 C 9.44 g/m*3 11.4 C 0 km/h
288 01-05-2014 23:55:00 11.3 C 9.38 g/m*3 11.3 C 0 km/h

Legende:
   Min
   Max


Maximal/Minimal-Werte vom 01.05.2014 - 01.05.2014

Sensor Min Max Avg
Temp
(Aussen-T/F)
11.3 °C
01-05-2014  23:55:00
20.4 °C
01-05-2014  14:50:00
14.74 °C
Abs-Feuchte
(Aussen-T/F)
8.01 g/m*3
01-05-2014  15:20:00
11.1 g/m*3
01-05-2014  15:45:00
10.05 g/m*3
Windchill
(Aussen-T/F)
11.3 C
01-05-2014  23:55:00
20.4 C
01-05-2014  14:50:00
14.69 C

Die Daten stammen von einer Davis Vantage Pro 2 Wetter-Station und werden unter Linux mit der Software wview2wettercgi und aufbereitet. Alle Angaben erfolgen ohne Gewähr für ihre Vollständigkeit oder Richtigkeit.
Kontakt: Rainer Krienke krienke@uni-koblenz.de . Meine Webseiten an der Uni Koblenz oder privat.
Version: $Revision: 0.78 $